Time;durP1;ratioP1;P1;durP2;ratioP2;P2;SDS_P1;SDS_P2;PMS_P1;PMS_P2;Temp;Humidity;BMP_temperature;BMP_pressure;BME280_temperature;BME280_humidity;BME280_pressure;Samples;Min_cycle;Max_cycle;Signal;HPM_P1;HPM_P2
2023/02/01 00:00:56;;;;;;;33.70;5.40;;;;;;;;;;5095568;28;20056;-69
2023/02/01 00:03:22;;;;;;;23.00;5.80;;;;;;;;;;5098701;28;20077;-69
2023/02/01 00:05:57;;;;;;;32.80;6.65;;;;;;;;;;5097955;28;20051;-69
2023/02/01 00:08:23;;;;;;;27.45;5.45;;;;;;;;;;5075882;28;20048;-69
2023/02/01 00:10:49;;;;;;;32.13;5.40;;;;;;;;;;5099000;28;21492;-69
2023/02/01 00:13:15;;;;;;;39.40;7.93;;;;;;;;;;5083555;28;20036;-69
2023/02/01 00:15:41;;;;;;;30.60;7.50;;;;;;;;;;5097392;28;20179;-70
2023/02/01 00:18:07;;;;;;;31.80;6.03;;;;;;;;;;5098611;28;20070;-69
2023/02/01 00:20:33;;;;;;;33.95;7.15;;;;;;;;;;5081267;28;20059;-69
2023/02/01 00:23:00;;;;;;;24.75;5.30;;;;;;;;;;5082513;28;20586;-69
2023/02/01 00:25:26;;;;;;;32.75;6.05;;;;;;;;;;5094022;28;20059;-69
2023/02/01 00:27:52;;;;;;;21.17;4.40;;;;;;;;;;5083957;28;20126;-69
2023/02/01 00:30:18;;;;;;;32.28;5.22;;;;;;;;;;5102615;28;20039;-70
2023/02/01 00:32:44;;;;;;;31.13;6.00;;;;;;;;;;5095932;28;20048;-69
2023/02/01 00:35:10;;;;;;;38.25;6.60;;;;;;;;;;5078545;28;20112;-69
2023/02/01 00:37:37;;;;;;;25.13;4.97;;;;;;;;;;5098118;28;20103;-69
2023/02/01 00:40:03;;;;;;;26.17;5.00;;;;;;;;;;5076188;28;20048;-70
2023/02/01 00:42:29;;;;;;;43.75;5.88;;;;;;;;;;5079089;28;20059;-69
2023/02/01 00:44:55;;;;;;;30.02;5.05;;;;;;;;;;5079813;28;20044;-70
2023/02/01 00:47:21;;;;;;;28.20;5.10;;;;;;;;;;5079392;28;20119;-69
2023/02/01 00:49:48;;;;;;;21.40;5.32;;;;;;;;;;5079357;28;20044;-69
2023/02/01 00:52:14;;;;;;;31.77;6.20;;;;;;;;;;5080949;28;20049;-69
2023/02/01 00:54:40;;;;;;;28.13;5.13;;;;;;;;;;5078532;28;20518;-69
2023/02/01 00:57:06;;;;;;;34.90;6.07;;;;;;;;;;5080086;28;20036;-69
2023/02/01 00:59:32;;;;;;;32.00;5.82;;;;;;;;;;5075811;28;20037;-69
2023/02/01 01:01:59;;;;;;;29.00;5.47;;;;;;;;;;5077626;28;20040;-69
2023/02/01 01:04:25;;;;;;;34.13;5.75;;;;;;;;;;5075558;28;20047;-69
2023/02/01 01:06:51;;;;;;;28.75;4.90;;;;;;;;;;5073985;28;20037;-69
2023/02/01 01:09:17;;;;;;;34.85;6.85;;;;;;;;;;5074189;28;20045;-69
2023/02/01 01:11:43;;;;;;;33.88;6.00;;;;;;;;;;5074605;28;20044;-69
2023/02/01 01:14:10;;;;;;;34.47;5.68;;;;;;;;;;5073353;28;20680;-69
2023/02/01 01:16:36;;;;;;;29.80;5.50;;;;;;;;;;5073407;28;20055;-69
2023/02/01 01:19:02;;;;;;;39.72;5.72;;;;;;;;;;5074581;28;20093;-69
2023/02/01 01:21:29;;;;;;;40.17;5.88;;;;;;;;;;5078411;28;20051;-69
2023/02/01 01:23:55;;;;;;;38.03;7.00;;;;;;;;;;5078105;28;20041;-69
2023/02/01 01:26:22;;;;;;;30.90;5.70;;;;;;;;;;5076915;28;20057;-69
2023/02/01 01:28:48;;;;;;;37.13;5.50;;;;;;;;;;5071309;28;20063;-69
2023/02/01 01:31:16;;;;;;;35.92;6.53;;;;;;;;;;5070682;28;20055;-70
2023/02/01 01:33:43;;;;;;;40.85;7.32;;;;;;;;;;5075632;28;20396;-70
2023/02/01 01:36:11;;;;;;;29.33;5.45;;;;;;;;;;5076503;28;20070;-70
2023/02/01 01:38:37;;;;;;;32.97;5.97;;;;;;;;;;5077221;28;20052;-70
2023/02/01 01:41:03;;;;;;;25.58;5.07;;;;;;;;;;5092627;28;20044;-70
2023/02/01 01:43:48;;;;;;;39.25;6.32;;;;;;;;;;5096310;28;20487;-70
2023/02/01 01:46:14;;;;;;;;;;;;;;;;;;5098901;28;20105;-70
2023/02/01 01:48:40;;;;;;;32.05;5.47;;;;;;;;;;5097975;28;20359;-70
2023/02/01 01:51:09;;;;;;;38.63;6.97;;;;;;;;;;5100026;28;20085;-70
2023/02/01 01:53:45;;;;;;;34.95;6.60;;;;;;;;;;5099062;28;20042;-70
2023/02/01 01:56:12;;;;;;;37.85;7.18;;;;;;;;;;5099214;28;20043;-70
2023/02/01 01:58:39;;;;;;;41.63;7.25;;;;;;;;;;5094616;28;20043;-71
2023/02/01 02:01:05;;;;;;;38.53;6.20;;;;;;;;;;5097842;28;20130;-70
2023/02/01 02:03:33;;;;;;;28.63;5.40;;;;;;;;;;5095182;28;20051;-70
2023/02/01 02:06:01;;;;;;;40.03;6.82;;;;;;;;;;5098981;28;20047;-70
2023/02/01 02:08:28;;;;;;;29.77;6.03;;;;;;;;;;5096298;28;20058;-70
2023/02/01 02:11:00;;;;;;;40.70;6.28;;;;;;;;;;5095515;28;20044;-71
2023/02/01 02:13:28;;;;;;;35.97;5.97;;;;;;;;;;5099494;28;20495;-70
2023/02/01 02:16:04;;;;;;;33.35;6.15;;;;;;;;;;5082921;28;20120;-70
2023/02/01 02:18:36;;;;;;;33.22;6.40;;;;;;;;;;5103535;28;20134;-70
2023/02/01 02:21:10;;;;;;;28.90;6.05;;;;;;;;;;5080784;28;20142;-70
2023/02/01 02:23:36;;;;;;;;;;;;;;;;;;5099879;28;20043;-70
2023/02/01 02:26:17;;;;;;;35.33;6.43;;;;;;;;;;5101287;28;19920;-70
2023/02/01 02:29:00;;;;;;;35.08;7.75;;;;;;;;;;5083672;28;20127;-70
2023/02/01 02:31:44;;;;;;;38.13;5.75;;;;;;;;;;5083458;28;20055;-70
2023/02/01 02:34:15;;;;;;;34.28;6.55;;;;;;;;;;5101100;28;20404;-70
2023/02/01 02:37:05;;;;;;;26.67;6.30;;;;;;;;;;5100586;28;20139;-70
2023/02/01 02:39:31;;;;;;;36.85;6.38;;;;;;;;;;5081048;28;20047;-70
2023/02/01 02:47:39;;;;;;;29.45;6.35;;;;;;;;;;5099395;28;20040;-70
2023/02/01 02:55:46;;;;;;;31.60;5.43;;;;;;;;;;5078029;28;20709;-70
2023/02/01 03:06:33;;;;;;;31.30;6.22;;;;;;;;;;5079903;28;20084;-70
2023/02/01 03:08:59;;;;;;;33.10;5.65;;;;;;;;;;5093057;28;20174;-70
2023/02/01 03:12:55;;;;;;;31.60;5.30;;;;;;;;;;5099821;28;20047;-70
2023/02/01 03:14:14;;;;;;;35.70;6.88;;;;;;;;;;5083645;28;20066;-69
2023/02/01 03:16:47;;;;;;;29.70;5.47;;;;;;;;;;5097877;28;20048;-70
2023/02/01 03:19:18;;;;;;;25.08;5.03;;;;;;;;;;5085792;28;20071;-70
2023/02/01 03:21:56;;;;;;;27.30;6.45;;;;;;;;;;5078835;28;20338;-70
2023/02/01 03:24:32;;;;;;;36.88;5.40;;;;;;;;;;5098544;28;20040;-70
2023/02/01 03:27:03;;;;;;;36.47;6.47;;;;;;;;;;5078022;28;20040;-70
2023/02/01 03:29:32;;;;;;;35.45;6.13;;;;;;;;;;5097415;28;20760;-70
2023/02/01 03:31:59;;;;;;;33.40;7.72;;;;;;;;;;5078144;28;20040;-70
2023/02/01 03:34:25;;;;;;;29.75;5.15;;;;;;;;;;5098208;28;20035;-70
2023/02/01 03:36:57;;;;;;;31.80;6.30;;;;;;;;;;5094587;28;20086;-70
2023/02/01 03:39:28;;;;;;;42.50;6.18;;;;;;;;;;5080330;28;20385;-70
2023/02/01 03:41:56;;;;;;;33.97;5.78;;;;;;;;;;5096490;28;20332;-70
2023/02/01 03:44:25;;;;;;;28.05;5.65;;;;;;;;;;5104787;28;20126;-70
2023/02/01 03:46:54;;;;;;;39.45;5.82;;;;;;;;;;5082525;28;20047;-70
2023/02/01 03:49:25;;;;;;;38.53;7.03;;;;;;;;;;5086456;28;20483;-70
2023/02/01 03:51:52;;;;;;;37.88;6.00;;;;;;;;;;5079030;28;20039;-70
2023/02/01 03:54:19;;;;;;;43.75;6.78;;;;;;;;;;5098526;28;20035;-70
2023/02/01 03:56:46;;;;;;;31.10;5.95;;;;;;;;;;5081201;28;20429;-70
2023/02/01 03:59:13;;;;;;;29.98;5.88;;;;;;;;;;5100900;28;20035;-70
2023/02/01 04:01:40;;;;;;;34.53;5.60;;;;;;;;;;5102938;28;20059;-70
2023/02/01 04:04:06;;;;;;;30.27;5.63;;;;;;;;;;5102052;28;20035;-70
2023/02/01 04:06:32;;;;;;;35.20;5.88;;;;;;;;;;5100155;28;20089;-70
2023/02/01 04:08:59;;;;;;;37.67;6.82;;;;;;;;;;5098685;28;20706;-71
2023/02/01 04:11:27;;;;;;;34.88;5.93;;;;;;;;;;5081522;28;20100;-70
2023/02/01 04:13:53;;;;;;;34.22;6.15;;;;;;;;;;5099887;28;20467;-70
2023/02/01 04:16:19;;;;;;;38.30;6.32;;;;;;;;;;5095672;28;20036;-70
2023/02/01 04:18:45;;;;;;;31.55;5.63;;;;;;;;;;5080763;28;20152;-70
2023/02/01 04:21:12;;;;;;;34.85;7.07;;;;;;;;;;5101551;28;20039;-70
2023/02/01 04:23:38;;;;;;;38.75;7.93;;;;;;;;;;5098749;28;20051;-70
2023/02/01 04:26:05;;;;;;;35.05;6.57;;;;;;;;;;5100018;28;20043;-70
2023/02/01 04:28:31;;;;;;;33.33;6.35;;;;;;;;;;5100850;28;20123;-70
2023/02/01 04:30:57;;;;;;;29.60;6.63;;;;;;;;;;5100494;28;20114;-70
2023/02/01 04:33:24;;;;;;;21.00;4.97;;;;;;;;;;5095107;28;20466;-70
2023/02/01 04:35:50;;;;;;;39.50;5.85;;;;;;;;;;5097044;28;20044;-70
2023/02/01 04:38:16;;;;;;;44.65;6.97;;;;;;;;;;5079985;28;20066;-70
2023/02/01 04:40:42;;;;;;;33.53;6.35;;;;;;;;;;5075303;28;20151;-70
2023/02/01 04:43:09;;;;;;;39.50;6.10;;;;;;;;;;5079114;28;20052;-70
2023/02/01 04:45:35;;;;;;;34.85;5.50;;;;;;;;;;5101230;28;20130;-70
2023/02/01 04:48:01;;;;;;;41.55;5.93;;;;;;;;;;5095826;28;20043;-70
2023/02/01 04:50:27;;;;;;;33.17;6.75;;;;;;;;;;5092503;28;20448;-70
2023/02/01 04:52:53;;;;;;;34.47;6.60;;;;;;;;;;5077065;28;20032;-70
2023/02/01 04:55:20;;;;;;;37.58;6.43;;;;;;;;;;5098542;28;20036;-70
2023/02/01 04:57:46;;;;;;;41.00;7.53;;;;;;;;;;5097143;28;20101;-70
2023/02/01 05:00:13;;;;;;;34.08;6.22;;;;;;;;;;5096817;28;20055;-70
2023/02/01 05:02:39;;;;;;;36.30;7.38;;;;;;;;;;5096586;28;20040;-70
2023/02/01 05:05:05;;;;;;;37.08;6.45;;;;;;;;;;5095848;28;20075;-70
2023/02/01 05:07:31;;;;;;;34.53;5.50;;;;;;;;;;5101057;28;20403;-70
2023/02/01 05:09:58;;;;;;;29.52;5.63;;;;;;;;;;5100256;28;20464;-70
2023/02/01 05:15:09;;;;;;;34.40;7.25;;;;;;;;;;5098599;28;20140;-70
2023/02/01 05:17:35;;;;;;;37.33;6.25;;;;;;;;;;5078290;28;20450;-70
2023/02/01 05:20:01;;;;;;;34.75;5.82;;;;;;;;;;5097655;28;20066;-70
2023/02/01 05:22:27;;;;;;;31.70;6.25;;;;;;;;;;5097166;28;20044;-70
2023/02/01 05:24:53;;;;;;;41.50;6.63;;;;;;;;;;5098191;28;20042;-70
2023/02/01 05:27:19;;;;;;;39.97;5.97;;;;;;;;;;5080829;28;20075;-68
2023/02/01 05:29:47;;;;;;;39.13;6.35;;;;;;;;;;5095045;28;20728;-69
2023/02/01 05:32:13;;;;;;;29.73;5.32;;;;;;;;;;5095866;28;20035;-69
2023/02/01 05:34:39;;;;;;;35.45;6.63;;;;;;;;;;5080937;28;20043;-69
2023/02/01 05:37:05;;;;;;;33.38;6.68;;;;;;;;;;5080141;28;20042;-68
2023/02/01 05:39:31;;;;;;;35.60;5.90;;;;;;;;;;5060345;28;21750;-69
2023/02/01 05:41:57;;;;;;;31.85;5.60;;;;;;;;;;5104653;28;20058;-69
2023/02/01 05:44:24;;;;;;;28.77;7.18;;;;;;;;;;5104232;28;20032;-69
2023/02/01 05:46:52;;;;;;;33.10;6.47;;;;;;;;;;5097711;28;20148;-69
2023/02/01 05:49:18;;;;;;;40.45;6.78;;;;;;;;;;5093582;28;20059;-69
2023/02/01 05:51:44;;;;;;;33.65;5.40;;;;;;;;;;5096544;28;20043;-69
2023/02/01 05:54:10;;;;;;;31.10;4.85;;;;;;;;;;5076927;28;20516;-69
2023/02/01 05:56:36;;;;;;;27.17;5.53;;;;;;;;;;5097581;28;20101;-68
2023/02/01 05:59:03;;;;;;;36.97;6.05;;;;;;;;;;5095133;28;20126;-69
2023/02/01 06:01:29;;;;;;;33.30;5.80;;;;;;;;;;5079463;28;20472;-69
2023/02/01 06:03:55;;;;;;;29.08;5.93;;;;;;;;;;5096423;28;20459;-68
2023/02/01 06:06:21;;;;;;;42.92;7.28;;;;;;;;;;5095853;28;20044;-68
2023/02/01 06:08:47;;;;;;;24.45;5.97;;;;;;;;;;5101187;28;20131;-68
2023/02/01 06:11:13;;;;;;;42.85;6.60;;;;;;;;;;5073959;28;20040;-68
2023/02/01 06:13:39;;;;;;;29.05;5.82;;;;;;;;;;5099574;28;20048;-68
2023/02/01 06:16:07;;;;;;;38.33;6.00;;;;;;;;;;5076277;28;20052;-68
2023/02/01 06:18:34;;;;;;;33.67;5.78;;;;;;;;;;5078068;28;20032;-68
2023/02/01 06:21:00;;;;;;;35.38;6.10;;;;;;;;;;5080496;28;20449;-70
2023/02/01 06:23:26;;;;;;;28.90;5.38;;;;;;;;;;5078121;28;20094;-67
2023/02/01 06:25:53;;;;;;;30.23;6.00;;;;;;;;;;5095802;28;20093;-69
2023/02/01 06:28:20;;;;;;;24.65;5.38;;;;;;;;;;5076739;28;20151;-68
2023/02/01 06:30:46;;;;;;;51.40;6.80;;;;;;;;;;5102551;28;20074;-69
2023/02/01 06:33:14;;;;;;;28.05;6.20;;;;;;;;;;5079924;28;20039;-69
2023/02/01 06:35:42;;;;;;;41.90;7.10;;;;;;;;;;5102165;28;20097;-69
2023/02/01 06:38:08;;;;;;;34.20;6.65;;;;;;;;;;5094472;28;20069;-68
2023/02/01 06:40:35;;;;;;;36.05;7.75;;;;;;;;;;5093100;28;20056;-69
2023/02/01 06:43:01;;;;;;;31.67;5.80;;;;;;;;;;5110766;28;20132;-68
2023/02/01 06:45:27;;;;;;;38.67;7.72;;;;;;;;;;5102223;28;20044;-68
2023/02/01 06:47:53;;;;;;;37.90;6.40;;;;;;;;;;5091607;28;20040;-68
2023/02/01 06:50:20;;;;;;;33.92;6.50;;;;;;;;;;5077274;28;20123;-69
2023/02/01 06:52:46;;;;;;;33.38;5.95;;;;;;;;;;5077428;28;20706;-69
2023/02/01 06:55:13;;;;;;;41.75;6.90;;;;;;;;;;5095939;28;20089;-69
2023/02/01 06:57:39;;;;;;;38.47;7.22;;;;;;;;;;5094142;28;20088;-68
2023/02/01 07:00:06;;;;;;;40.72;6.20;;;;;;;;;;5095113;28;20499;-68
2023/02/01 07:02:32;;;;;;;33.63;7.38;;;;;;;;;;5099127;28;20131;-69
2023/02/01 07:04:58;;;;;;;43.25;7.47;;;;;;;;;;5096110;28;20764;-69
2023/02/01 07:07:24;;;;;;;41.45;6.00;;;;;;;;;;5097373;28;20040;-69
2023/02/01 07:09:50;;;;;;;32.97;6.25;;;;;;;;;;5099435;28;20459;-69
2023/02/01 07:12:16;;;;;;;37.83;7.80;;;;;;;;;;5100012;28;20534;-69
2023/02/01 07:14:42;;;;;;;35.78;6.88;;;;;;;;;;5099809;28;20036;-69
2023/02/01 07:17:09;;;;;;;31.40;5.72;;;;;;;;;;5098193;28;20054;-69
2023/02/01 07:19:35;;;;;;;31.60;6.32;;;;;;;;;;5101252;28;20039;-69
2023/02/01 07:22:01;;;;;;;40.50;7.18;;;;;;;;;;5077558;28;20079;-69
2023/02/01 07:24:27;;;;;;;37.47;7.28;;;;;;;;;;5100034;28;20365;-69
2023/02/01 07:26:53;;;;;;;33.85;6.50;;;;;;;;;;5082447;28;20501;-69
2023/02/01 07:29:20;;;;;;;35.33;6.15;;;;;;;;;;5101271;28;20440;-68
2023/02/01 07:31:46;;;;;;;34.83;6.32;;;;;;;;;;5100815;28;20056;-69
2023/02/01 07:34:12;;;;;;;28.38;5.20;;;;;;;;;;5096659;28;20479;-69
2023/02/01 07:36:39;;;;;;;41.80;7.00;;;;;;;;;;5080270;28;20063;-69
2023/02/01 07:39:05;;;;;;;26.70;4.22;;;;;;;;;;5100036;28;20039;-68
2023/02/01 07:41:31;;;;;;;35.42;6.28;;;;;;;;;;5097900;28;20047;-69
2023/02/01 07:43:57;;;;;;;32.17;5.93;;;;;;;;;;5082734;28;20047;-68
2023/02/01 07:46:24;;;;;;;29.85;5.47;;;;;;;;;;5082370;28;20088;-68
2023/02/01 07:48:50;;;;;;;34.70;5.20;;;;;;;;;;5078550;28;20111;-68
2023/02/01 07:51:17;;;;;;;26.60;5.05;;;;;;;;;;5082640;28;20817;-68
2023/02/01 07:53:44;;;;;;;44.25;6.80;;;;;;;;;;5098972;28;20048;-68
2023/02/01 07:56:11;;;;;;;33.72;6.70;;;;;;;;;;5100235;28;20052;-69
2023/02/01 07:58:37;;;;;;;37.15;6.30;;;;;;;;;;5102138;28;20407;-69
2023/02/01 08:01:19;;;;;;;37.83;6.32;;;;;;;;;;5101785;28;20092;-68
2023/02/01 08:03:45;;;;;;;44.08;7.30;;;;;;;;;;5097785;28;20059;-68
2023/02/01 08:06:12;;;;;;;38.33;7.35;;;;;;;;;;5084828;28;20043;-68
2023/02/01 08:08:38;;;;;;;40.28;6.72;;;;;;;;;;5101238;28;20048;-68
2023/02/01 08:11:05;;;;;;;26.77;5.07;;;;;;;;;;5100745;28;20049;-69
2023/02/01 08:13:33;;;;;;;35.10;6.70;;;;;;;;;;5100111;28;20044;-69
2023/02/01 08:16:00;;;;;;;35.10;5.50;;;;;;;;;;5098753;28;20051;-68
2023/02/01 08:18:26;;;;;;;28.85;5.10;;;;;;;;;;5082511;28;20054;-68
2023/02/01 08:20:52;;;;;;;42.80;6.15;;;;;;;;;;5079459;28;20088;-68
2023/02/01 08:23:19;;;;;;;33.00;5.57;;;;;;;;;;5095736;28;20493;-68
2023/02/01 08:25:46;;;;;;;31.30;5.75;;;;;;;;;;5098047;28;20187;-68
2023/02/01 08:28:12;;;;;;;33.03;5.70;;;;;;;;;;5099537;28;20042;-68
2023/02/01 08:30:39;;;;;;;36.88;6.10;;;;;;;;;;5085582;28;20063;-68
2023/02/01 08:33:06;;;;;;;28.23;5.47;;;;;;;;;;5079884;28;20044;-68
2023/02/01 08:35:33;;;;;;;29.15;5.13;;;;;;;;;;5094744;28;20091;-69
2023/02/01 08:37:59;;;;;;;33.00;5.68;;;;;;;;;;5095724;28;20047;-68
2023/02/01 08:40:25;;;;;;;23.15;5.07;;;;;;;;;;5097502;28;20062;-68
2023/02/01 08:42:51;;;;;;;26.27;4.95;;;;;;;;;;5096575;28;20104;-68
2023/02/01 08:45:24;;;;;;;29.90;4.75;;;;;;;;;;5097204;28;20046;-68
2023/02/01 08:47:51;;;;;;;34.35;5.22;;;;;;;;;;5081459;28;20076;-69
2023/02/01 08:50:17;;;;;;;32.88;5.13;;;;;;;;;;5079894;28;20490;-66
2023/02/01 08:52:44;;;;;;;37.47;5.15;;;;;;;;;;5096920;28;20047;-66
2023/02/01 08:55:10;;;;;;;19.40;3.75;;;;;;;;;;5098296;28;20048;-66
2023/02/01 08:57:36;;;;;;;27.63;5.70;;;;;;;;;;5096992;28;20182;-66
2023/02/01 09:00:04;;;;;;;30.55;5.93;;;;;;;;;;5099053;28;20046;-67
2023/02/01 09:02:30;;;;;;;28.20;4.80;;;;;;;;;;5100340;28;20035;-66
2023/02/01 09:04:57;;;;;;;35.53;4.88;;;;;;;;;;5098077;28;20044;-67
2023/02/01 09:07:23;;;;;;;28.08;5.78;;;;;;;;;;5096904;28;20081;-67
2023/02/01 09:09:49;;;;;;;26.23;4.78;;;;;;;;;;5097751;28;20078;-67
2023/02/01 09:12:15;;;;;;;26.55;4.45;;;;;;;;;;5080980;28;20059;-66
2023/02/01 09:14:41;;;;;;;26.80;4.50;;;;;;;;;;5098042;28;20040;-66
2023/02/01 09:17:08;;;;;;;25.58;5.15;;;;;;;;;;5099331;28;20499;-66
2023/02/01 09:19:34;;;;;;;31.02;4.28;;;;;;;;;;5099070;28;20032;-65
2023/02/01 09:22:00;;;;;;;26.38;4.43;;;;;;;;;;5078162;28;20050;-66
2023/02/01 09:24:27;;;;;;;38.90;6.10;;;;;;;;;;5096160;28;20050;-67
2023/02/01 09:26:53;;;;;;;20.73;4.63;;;;;;;;;;5076643;28;20076;-67
2023/02/01 09:29:19;;;;;;;30.25;5.65;;;;;;;;;;5095691;28;20479;-67
2023/02/01 09:31:45;;;;;;;36.58;5.57;;;;;;;;;;5097703;28;20048;-67
2023/02/01 09:34:12;;;;;;;28.38;5.10;;;;;;;;;;5081542;28;20067;-67
2023/02/01 09:36:38;;;;;;;33.85;5.43;;;;;;;;;;5099106;28;20036;-68
2023/02/01 09:39:04;;;;;;;31.63;6.30;;;;;;;;;;5081697;28;20044;-67
2023/02/01 09:41:37;;;;;;;28.50;5.43;;;;;;;;;;5098157;28;20044;-67
2023/02/01 09:44:10;;;;;;;27.02;5.47;;;;;;;;;;5099031;28;20496;-66
2023/02/01 09:46:36;;;;;;;30.17;4.85;;;;;;;;;;5097130;28;20124;-67
2023/02/01 09:49:06;;;;;;;30.55;5.05;;;;;;;;;;5098453;28;20513;-67
2023/02/01 09:51:36;;;;;;;26.85;5.80;;;;;;;;;;5097155;28;20040;-67
2023/02/01 09:54:05;;;;;;;34.50;6.45;;;;;;;;;;5098862;28;20119;-66
2023/02/01 09:56:36;;;;;;;28.63;6.55;;;;;;;;;;5096001;28;20043;-66
2023/02/01 09:59:09;;;;;;;25.25;5.25;;;;;;;;;;5080866;28;20168;-66
2023/02/01 10:01:36;;;;;;;26.30;5.80;;;;;;;;;;5096329;28;20101;-67
2023/02/01 10:04:05;;;;;;;26.98;4.63;;;;;;;;;;5095582;28;20047;-67
2023/02/01 10:06:38;;;;;;;29.95;4.63;;;;;;;;;;5097550;28;20161;-67
2023/02/01 10:09:11;;;;;;;32.53;6.53;;;;;;;;;;5098134;28;20040;-67
2023/02/01 10:11:49;;;;;;;25.25;4.72;;;;;;;;;;5097334;28;20112;-67
2023/02/01 10:14:26;;;;;;;26.00;5.10;;;;;;;;;;5092801;28;20044;-67
2023/02/01 10:16:57;;;;;;;24.80;3.75;;;;;;;;;;5094647;28;20143;-67
2023/02/01 10:19:27;;;;;;;29.17;4.03;;;;;;;;;;5080097;28;20039;-68
2023/02/01 10:22:01;;;;;;;26.33;4.85;;;;;;;;;;5096040;28;20033;-66
2023/02/01 10:24:33;;;;;;;25.83;4.53;;;;;;;;;;5078961;28;20495;-66
2023/02/01 10:27:15;;;;;;;27.30;4.55;;;;;;;;;;5096991;28;20048;-66
2023/02/01 10:29:42;;;;;;;36.22;5.30;;;;;;;;;;5093400;28;20051;-66
2023/02/01 10:32:12;;;;;;;29.08;6.38;;;;;;;;;;5098081;28;20110;-67
2023/02/01 10:34:39;;;;;;;33.20;5.68;;;;;;;;;;5087799;28;20051;-67
2023/02/01 10:37:18;;;;;;;29.67;5.35;;;;;;;;;;5110575;28;20039;-67
2023/02/01 10:39:46;;;;;;;34.22;5.80;;;;;;;;;;5100829;28;20051;-67
2023/02/01 10:42:12;;;;;;;34.55;5.28;;;;;;;;;;5091499;28;20035;-67
2023/02/01 10:44:42;;;;;;;30.67;6.00;;;;;;;;;;5089361;28;20050;-67
2023/02/01 10:47:09;;;;;;;28.90;6.55;;;;;;;;;;5108680;28;20094;-67
2023/02/01 10:49:41;;;;;;;34.67;6.15;;;;;;;;;;5090322;28;20052;-66
2023/02/01 10:52:17;;;;;;;31.40;6.55;;;;;;;;;;5105381;28;20044;-66
2023/02/01 10:54:43;;;;;;;25.08;5.93;;;;;;;;;;5103967;28;20044;-67
2023/02/01 10:57:11;;;;;;;32.90;5.25;;;;;;;;;;5090442;28;20047;-67
2023/02/01 10:59:38;;;;;;;24.48;5.97;;;;;;;;;;5111063;28;20040;-67
2023/02/01 11:02:19;;;;;;;31.75;6.53;;;;;;;;;;5089040;28;20043;-67
2023/02/01 11:04:45;;;;;;;31.92;5.65;;;;;;;;;;5082849;28;20044;-67
2023/02/01 11:07:18;;;;;;;39.17;6.03;;;;;;;;;;5104089;28;20487;-68
2023/02/01 11:09:49;;;;;;;36.00;6.00;;;;;;;;;;5101864;28;20036;-68
2023/02/01 11:12:23;;;;;;;27.20;5.50;;;;;;;;;;5095207;28;20097;-68
2023/02/01 11:14:51;;;;;;;35.05;5.65;;;;;;;;;;5102051;28;20109;-69
2023/02/01 11:17:24;;;;;;;32.67;7.18;;;;;;;;;;5076265;28;20051;-68
2023/02/01 11:19:57;;;;;;;41.03;7.22;;;;;;;;;;5102048;28;20075;-68
2023/02/01 11:22:24;;;;;;;25.90;4.85;;;;;;;;;;5098074;28;20130;-69
2023/02/01 11:24:51;;;;;;;35.50;5.38;;;;;;;;;;5094579;28;20036;-69
2023/02/01 11:27:19;;;;;;;29.55;5.32;;;;;;;;;;5094074;28;20126;-70
2023/02/01 11:29:47;;;;;;;38.08;6.10;;;;;;;;;;5098786;28;20047;-69
2023/02/01 11:32:15;;;;;;;28.92;5.88;;;;;;;;;;5081659;28;20048;-69
2023/02/01 11:34:47;;;;;;;29.17;6.45;;;;;;;;;;5075716;28;20044;-68
2023/02/01 11:37:17;;;;;;;32.53;6.28;;;;;;;;;;5094339;28;20050;-68
2023/02/01 11:39:43;;;;;;;30.17;6.57;;;;;;;;;;5110365;28;20087;-68
2023/02/01 11:42:16;;;;;;;30.55;5.95;;;;;;;;;;5101624;28;20558;-68
2023/02/01 11:44:44;;;;;;;40.72;6.18;;;;;;;;;;5078555;28;20047;-68
2023/02/01 11:47:28;;;;;;;27.38;5.72;;;;;;;;;;5102543;28;20503;-68
2023/02/01 11:49:56;;;;;;;42.45;6.97;;;;;;;;;;5079175;28;20040;-68
2023/02/01 11:52:30;;;;;;;36.72;6.88;;;;;;;;;;5082782;28;20036;-68
2023/02/01 11:54:56;;;;;;;;;;;;;;;;;;5094017;28;20040;-68
2023/02/01 11:57:29;;;;;;;35.38;5.68;;;;;;;;;;5076034;28;19969;-68
2023/02/01 12:00:03;;;;;;;36.40;7.45;;;;;;;;;;5097603;28;20491;-68
2023/02/01 12:02:30;;;;;;;34.28;6.70;;;;;;;;;;5101623;28;20376;-68
2023/02/01 12:05:07;;;;;;;48.10;8.55;;;;;;;;;;5098169;28;20044;-68
2023/02/01 12:07:47;;;;;;;36.28;6.90;;;;;;;;;;5104768;28;20036;-68
2023/02/01 12:10:25;;;;;;;39.88;6.25;;;;;;;;;;5093915;28;20511;-68
2023/02/01 12:13:02;;;;;;;45.15;7.80;;;;;;;;;;5079416;28;20048;-68
2023/02/01 12:15:34;;;;;;;32.55;6.05;;;;;;;;;;5097431;28;20036;-68
2023/02/01 12:18:13;;;;;;;44.90;8.35;;;;;;;;;;5098077;28;20043;-68
2023/02/01 12:21:00;;;;;;;39.63;7.25;;;;;;;;;;5087082;28;20043;-68
2023/02/01 12:23:46;;;;;;;38.47;6.97;;;;;;;;;;5101154;28;20044;-68
2023/02/01 12:26:14;;;;;;;38.03;7.88;;;;;;;;;;5101254;28;20467;-68
2023/02/01 12:28:49;;;;;;;42.08;7.38;;;;;;;;;;5097003;28;20052;-68
2023/02/01 12:31:31;;;;;;;49.90;6.80;;;;;;;;;;5082046;28;20074;-68
2023/02/01 12:34:10;;;;;;;43.38;8.32;;;;;;;;;;5078859;28;20414;-68
2023/02/01 12:36:41;;;;;;;45.03;7.82;;;;;;;;;;5093691;28;20534;-68
2023/02/01 12:39:16;;;;;;;31.85;7.40;;;;;;;;;;5095192;28;20085;-68
2023/02/01 12:41:49;;;;;;;35.25;6.97;;;;;;;;;;5076505;28;20124;-68
2023/02/01 12:44:21;;;;;;;54.72;9.30;;;;;;;;;;5093934;28;20112;-68
2023/02/01 12:46:51;;;;;;;29.52;6.68;;;;;;;;;;5075018;28;20047;-68
2023/02/01 12:49:20;;;;;;;42.35;7.85;;;;;;;;;;5083532;28;20104;-68
2023/02/01 12:51:49;;;;;;;35.70;7.50;;;;;;;;;;5094194;28;20040;-68
2023/02/01 12:54:21;;;;;;;35.72;7.10;;;;;;;;;;5092969;28;20109;-68
2023/02/01 12:56:52;;;;;;;43.92;8.63;;;;;;;;;;5099034;28;20110;-68
2023/02/01 12:59:27;;;;;;;44.67;8.25;;;;;;;;;;5102905;28;20040;-68
2023/02/01 13:01:58;;;;;;;36.78;8.70;;;;;;;;;;5100852;28;20437;-68
2023/02/01 13:04:27;;;;;;;55.15;7.88;;;;;;;;;;5096874;28;20132;-68
2023/02/01 13:07:00;;;;;;;43.80;8.05;;;;;;;;;;5092014;28;20032;-68
2023/02/01 13:09:29;;;;;;;39.55;6.88;;;;;;;;;;5092544;28;20131;-68
2023/02/01 13:11:58;;;;;;;41.50;6.75;;;;;;;;;;5106883;28;20058;-68
2023/02/01 13:14:29;;;;;;;35.25;6.72;;;;;;;;;;5092481;28;20398;-68
2023/02/01 13:17:04;;;;;;;39.88;7.38;;;;;;;;;;5094048;28;20040;-68
2023/02/01 13:19:42;;;;;;;45.80;8.77;;;;;;;;;;5096360;28;20040;-68
2023/02/01 13:22:12;;;;;;;42.40;8.23;;;;;;;;;;5096524;28;20109;-68
2023/02/01 13:24:38;;;;;;;33.75;7.28;;;;;;;;;;5095449;28;20043;-68
2023/02/01 13:27:04;;;;;;;43.95;7.55;;;;;;;;;;5075240;28;20104;-68
2023/02/01 13:29:31;;;;;;;45.08;8.55;;;;;;;;;;5097966;28;20089;-68
2023/02/01 13:32:03;;;;;;;62.55;8.90;;;;;;;;;;5074499;28;20086;-68
2023/02/01 13:34:39;;;;;;;46.75;8.07;;;;;;;;;;5080497;28;20042;-68
2023/02/01 13:37:15;;;;;;;40.63;8.50;;;;;;;;;;5092092;28;20395;-68
2023/02/01 13:39:46;;;;;;;52.80;9.38;;;;;;;;;;5095611;28;20036;-68
2023/02/01 13:42:15;;;;;;;49.72;8.20;;;;;;;;;;5091789;28;20123;-68
2023/02/01 13:44:44;;;;;;;41.63;7.88;;;;;;;;;;5092645;28;20489;-68
2023/02/01 13:47:23;;;;;;;50.45;9.13;;;;;;;;;;5094200;28;20341;-68
2023/02/01 13:49:50;;;;;;;52.45;9.73;;;;;;;;;;5096748;28;20043;-68
2023/02/01 13:52:32;;;;;;;41.35;7.80;;;;;;;;;;5092317;28;20047;-68
2023/02/01 13:55:04;;;;;;;42.63;7.63;;;;;;;;;;5093150;28;20047;-68
2023/02/01 13:57:36;;;;;;;42.45;6.95;;;;;;;;;;5094453;28;20132;-68
2023/02/01 14:00:09;;;;;;;40.72;6.22;;;;;;;;;;5095834;28;20048;-69
2023/02/01 14:02:38;;;;;;;37.67;6.80;;;;;;;;;;5079644;28;20101;-68
2023/02/01 14:05:08;;;;;;;45.72;9.40;;;;;;;;;;5096127;28;20040;-68
2023/02/01 14:07:34;;;;;;;48.35;7.28;;;;;;;;;;5097280;28;20050;-69
2023/02/01 14:10:20;;;;;;;46.47;8.57;;;;;;;;;;5078776;28;20079;-69
2023/02/01 14:12:49;;;;;;;41.03;7.40;;;;;;;;;;5099309;28;20052;-69
2023/02/01 14:15:22;;;;;;;44.95;7.22;;;;;;;;;;5100704;28;20044;-69
2023/02/01 14:17:48;;;;;;;47.95;8.32;;;;;;;;;;5079956;28;20139;-69
2023/02/01 14:20:33;;;;;;;50.70;8.07;;;;;;;;;;5102072;28;21571;-69
2023/02/01 14:23:01;;;;;;;49.50;9.02;;;;;;;;;;5099011;28;20044;-70
2023/02/01 14:25:32;;;;;;;35.72;8.15;;;;;;;;;;5080866;28;20104;-69
2023/02/01 14:27:59;;;;;;;57.53;8.32;;;;;;;;;;5082447;28;20051;-70
2023/02/01 14:30:25;;;;;;;58.92;10.02;;;;;;;;;;5097121;28;20036;-69
2023/02/01 14:32:51;;;;;;;47.67;9.02;;;;;;;;;;5100394;28;20039;-67
2023/02/01 14:35:20;;;;;;;53.33;8.70;;;;;;;;;;5101399;28;20125;-67
2023/02/01 14:37:47;;;;;;;51.92;8.43;;;;;;;;;;5081312;28;20131;-67
2023/02/01 14:40:13;;;;;;;50.10;8.05;;;;;;;;;;5098673;28;20126;-69
2023/02/01 14:42:44;;;;;;;40.58;8.02;;;;;;;;;;5082412;28;20056;-68
2023/02/01 14:45:21;;;;;;;47.38;8.32;;;;;;;;;;5100255;28;20059;-68
2023/02/01 14:47:48;;;;;;;50.88;8.45;;;;;;;;;;5079594;28;20146;-68
2023/02/01 14:50:21;;;;;;;53.38;9.07;;;;;;;;;;5082490;28;20052;-68
2023/02/01 14:52:50;;;;;;;47.55;7.50;;;;;;;;;;5098625;28;20051;-68
2023/02/01 14:55:26;;;;;;;31.83;7.03;;;;;;;;;;5097614;28;20391;-69
2023/02/01 14:57:54;;;;;;;39.30;7.50;;;;;;;;;;5099152;28;20040;-69
2023/02/01 15:00:20;;;;;;;45.58;7.40;;;;;;;;;;5097539;28;20119;-68
2023/02/01 15:02:49;;;;;;;42.10;7.47;;;;;;;;;;5080400;28;20457;-68